Time;durP1;ratioP1;P1;durP2;ratioP2;P2;SDS_P1;SDS_P2;PMS_P1;PMS_P2;Temp;Humidity;BMP_temperature;BMP_pressure;BME280_temperature;BME280_humidity;BME280_pressure;Samples;Min_cycle;Max_cycle;Signal;HPM_P1;HPM_P2
2022/01/23 00:00:03;;;;;;;18.07;13.13;;;;;;;;;;5031941;28;20201;-69
2022/01/23 00:02:29;;;;;;;17.70;12.63;;;;;;;;;;5029189;28;20185;-68
2022/01/23 00:04:54;;;;;;;19.83;12.87;;;;;;;;;;5036199;28;20199;-68
2022/01/23 00:07:20;;;;;;;17.27;12.83;;;;;;;;;;5035078;28;20212;-69
2022/01/23 00:09:45;;;;;;;19.03;12.70;;;;;;;;;;5030290;28;20175;-68
2022/01/23 00:12:14;;;;;;;17.07;12.40;;;;;;;;;;5007130;28;20182;-67
2022/01/23 00:17:25;;;;;;;21.93;13.50;;;;;;;;;;5030856;28;20591;-69
2022/01/23 00:19:55;;;;;;;18.03;13.20;;;;;;;;;;5030598;28;20217;-68
2022/01/23 00:22:24;;;;;;;16.30;12.30;;;;;;;;;;5038379;28;20227;-68
2022/01/23 00:30:25;;;;;;;18.17;12.57;;;;;;;;;;5033018;28;20205;-68
2022/01/23 00:32:51;;;;;;;20.90;12.87;;;;;;;;;;5033414;28;20182;-71
2022/01/23 00:35:16;;;;;;;16.33;12.80;;;;;;;;;;5019206;28;20201;-68
2022/01/23 00:37:41;;;;;;;17.90;11.80;;;;;;;;;;5033203;28;20369;-72
2022/01/23 00:40:07;;;;;;;20.23;13.30;;;;;;;;;;5022682;28;20565;-68
2022/01/23 00:42:32;;;;;;;16.77;12.23;;;;;;;;;;5027072;28;20182;-70
2022/01/23 00:45:15;;;;;;;16.63;12.90;;;;;;;;;;5027001;28;20551;-69
2022/01/23 00:47:40;;;;;;;20.00;13.40;;;;;;;;;;5029520;28;20224;-69
2022/01/23 00:50:05;;;;;;;18.37;11.83;;;;;;;;;;5025254;28;20232;-69
2022/01/23 00:52:30;;;;;;;19.07;14.50;;;;;;;;;;5031742;28;20253;-70
2022/01/23 00:57:33;;;;;;;17.30;11.60;;;;;;;;;;5047249;28;20235;-71
2022/01/23 00:59:59;;;;;;;17.83;12.70;;;;;;;;;;5045206;28;20251;-71
2022/01/23 01:02:24;;;;;;;14.63;11.27;;;;;;;;;;5051522;28;20280;-72
2022/01/23 01:04:49;;;;;;;14.97;11.67;;;;;;;;;;5051001;28;20182;-71
2022/01/23 01:07:14;;;;;;;17.73;12.97;;;;;;;;;;5050208;28;20198;-71
2022/01/23 01:09:40;;;;;;;15.47;12.03;;;;;;;;;;5049745;28;20196;-70
2022/01/23 01:12:08;;;;;;;17.07;11.77;;;;;;;;;;5052198;28;20178;-71
2022/01/23 01:14:55;;;;;;;18.27;12.17;;;;;;;;;;5050155;28;20235;-70
2022/01/23 01:31:22;;;;;;;16.37;11.53;;;;;;;;;;5050095;28;20181;-71
2022/01/23 01:36:56;;;;;;;16.87;12.30;;;;;;;;;;5038998;28;20263;-71
2022/01/23 01:39:25;;;;;;;17.13;12.00;;;;;;;;;;5048285;28;20332;-71
2022/01/23 01:41:51;;;;;;;15.23;11.40;;;;;;;;;;5046132;28;20647;-71
2022/01/23 01:44:16;;;;;;;18.20;12.17;;;;;;;;;;5049142;28;20268;-71
2022/01/23 01:46:42;;;;;;;21.60;12.57;;;;;;;;;;5034440;28;20312;-71
2022/01/23 01:49:08;;;;;;;21.83;13.80;;;;;;;;;;5032620;28;20224;-71
2022/01/23 01:51:33;;;;;;;18.17;11.97;;;;;;;;;;5047822;28;20186;-71
2022/01/23 01:54:08;;;;;;;19.70;13.33;;;;;;;;;;5049084;28;20429;-71
2022/01/23 01:56:40;;;;;;;23.67;12.10;;;;;;;;;;5032866;28;20627;-71
2022/01/23 02:09:22;;;;;;;18.77;12.97;;;;;;;;;;5050660;28;20238;-71
2022/01/23 02:17:20;;;;;;;21.50;13.60;;;;;;;;;;5049242;28;20617;-71
2022/01/23 02:25:18;;;;;;;22.10;13.97;;;;;;;;;;5051264;28;20178;-71
2022/01/23 02:52:56;;;;;;;20.27;13.27;;;;;;;;;;5049690;28;20239;-71
2022/01/23 02:55:34;;;;;;;22.17;13.33;;;;;;;;;;5049759;28;20204;-70
2022/01/23 02:58:04;;;;;;;19.63;14.23;;;;;;;;;;5050685;28;20220;-70
2022/01/23 03:00:35;;;;;;;22.83;13.73;;;;;;;;;;5031677;28;20186;-70
2022/01/23 03:03:46;;;;;;;18.60;14.23;;;;;;;;;;5048297;28;20177;-73
2022/01/23 03:06:18;;;;;;;20.70;14.43;;;;;;;;;;5035468;28;20229;-69
2022/01/23 03:24:58;;;;;;;20.90;14.07;;;;;;;;;;5043198;28;20208;-69
2022/01/23 03:32:42;;;;;;;22.17;14.13;;;;;;;;;;5048665;28;20208;-70
2022/01/23 03:35:08;;;;;;;19.90;15.83;;;;;;;;;;5052618;28;20200;-69
2022/01/23 03:37:33;;;;;;;18.67;13.73;;;;;;;;;;5052202;28;20181;-69
2022/01/23 03:39:58;;;;;;;19.67;13.30;;;;;;;;;;5048882;28;20205;-69
2022/01/23 03:42:25;;;;;;;21.17;14.20;;;;;;;;;;5045807;28;20710;-69
2022/01/23 03:45:13;;;;;;;19.73;13.60;;;;;;;;;;5049153;28;20558;-70
2022/01/23 03:47:38;;;;;;;21.37;13.23;;;;;;;;;;5041872;28;20189;-69
2022/01/23 03:50:05;;;;;;;25.57;15.23;;;;;;;;;;5030884;28;20185;-69
2022/01/23 03:52:31;;;;;;;21.93;13.43;;;;;;;;;;5048120;28;20190;-72
2022/01/23 03:54:56;;;;;;;24.90;13.77;;;;;;;;;;5048950;28;20268;-70
2022/01/23 03:57:21;;;;;;;20.57;14.53;;;;;;;;;;5054194;28;20185;-71
2022/01/23 03:59:46;;;;;;;16.77;12.17;;;;;;;;;;5047556;28;20743;-70
2022/01/23 04:02:12;;;;;;;16.03;11.87;;;;;;;;;;5052315;28;20667;-70
2022/01/23 04:04:40;;;;;;;20.57;14.60;;;;;;;;;;5049997;28;20185;-70
2022/01/23 04:07:08;;;;;;;19.03;13.63;;;;;;;;;;5044357;28;20206;-70
2022/01/23 04:09:34;;;;;;;20.40;13.50;;;;;;;;;;5030114;28;20178;-70
2022/01/23 04:12:00;;;;;;;19.63;13.57;;;;;;;;;;5048844;28;20551;-70
2022/01/23 04:14:27;;;;;;;19.80;12.43;;;;;;;;;;5049868;28;20593;-70
2022/01/23 04:20:20;;;;;;;18.83;13.43;;;;;;;;;;5045982;28;20247;-70
2022/01/23 04:59:49;;;;;;;16.50;12.13;;;;;;;;;;5050473;28;20204;-70
2022/01/23 05:04:58;;;;;;;20.30;12.90;;;;;;;;;;5048536;28;20185;-70
2022/01/23 05:07:28;;;;;;;19.03;12.73;;;;;;;;;;5051615;28;20231;-70
2022/01/23 05:09:53;;;;;;;22.67;14.33;;;;;;;;;;5050818;28;20177;-70
2022/01/23 05:12:21;;;;;;;18.87;12.93;;;;;;;;;;5051709;28;20260;-70
2022/01/23 05:14:48;;;;;;;23.37;13.50;;;;;;;;;;5033758;28;20543;-70
2022/01/23 05:17:15;;;;;;;20.57;14.37;;;;;;;;;;5051020;28;20603;-70
2022/01/23 05:19:40;;;;;;;20.07;13.47;;;;;;;;;;5051820;28;20231;-70
2022/01/23 05:22:20;;;;;;;18.37;12.73;;;;;;;;;;5051653;28;20213;-70
2022/01/23 05:24:52;;;;;;;19.83;12.90;;;;;;;;;;5033262;28;20280;-71
2022/01/23 05:27:18;;;;;;;19.57;13.60;;;;;;;;;;5051065;28;20301;-70
2022/01/23 05:29:43;;;;;;;23.03;14.27;;;;;;;;;;5050804;28;20705;-70
2022/01/23 05:32:11;;;;;;;19.17;13.13;;;;;;;;;;5051078;28;20288;-70
2022/01/23 05:34:37;;;;;;;17.87;11.93;;;;;;;;;;5047598;28;20239;-70
2022/01/23 05:37:02;;;;;;;22.87;14.10;;;;;;;;;;5048685;28;20202;-71
2022/01/23 05:39:32;;;;;;;21.90;13.80;;;;;;;;;;5049746;28;20613;-70
2022/01/23 05:42:04;;;;;;;22.07;12.67;;;;;;;;;;5047020;28;20184;-70
2022/01/23 05:44:29;;;;;;;19.43;13.17;;;;;;;;;;5050787;28;20622;-70
2022/01/23 05:46:54;;;;;;;18.57;13.00;;;;;;;;;;5050768;28;20292;-70
2022/01/23 05:49:20;;;;;;;21.63;12.67;;;;;;;;;;5051004;28;20182;-70
2022/01/23 05:51:45;;;;;;;19.27;13.27;;;;;;;;;;5049367;28;20269;-70
2022/01/23 05:54:10;;;;;;;21.40;13.50;;;;;;;;;;5051562;28;20212;-71
2022/01/23 05:56:35;;;;;;;22.23;13.97;;;;;;;;;;5053833;28;20304;-71
2022/01/23 05:59:00;;;;;;;21.00;13.73;;;;;;;;;;5049600;28;20690;-70
2022/01/23 06:01:26;;;;;;;19.37;12.93;;;;;;;;;;5048381;28;20196;-71
2022/01/23 06:03:51;;;;;;;21.47;12.83;;;;;;;;;;5054248;28;20186;-71
2022/01/23 06:06:16;;;;;;;17.30;12.80;;;;;;;;;;5050019;28;20197;-70
2022/01/23 06:08:42;;;;;;;20.93;12.83;;;;;;;;;;5054543;28;20181;-70
2022/01/23 06:11:07;;;;;;;21.67;13.07;;;;;;;;;;5050881;28;20227;-71
2022/01/23 06:13:33;;;;;;;21.53;14.83;;;;;;;;;;5050127;28;20209;-70
2022/01/23 06:15:58;;;;;;;20.43;13.90;;;;;;;;;;5050550;28;20209;-71
2022/01/23 06:18:23;;;;;;;20.00;13.27;;;;;;;;;;5049896;28;20309;-70
2022/01/23 06:20:49;;;;;;;18.13;12.97;;;;;;;;;;5049880;28;20169;-71
2022/01/23 06:23:14;;;;;;;23.60;14.23;;;;;;;;;;5051442;28;20185;-71
2022/01/23 06:25:43;;;;;;;22.57;14.90;;;;;;;;;;5052933;28;20197;-70
2022/01/23 06:28:09;;;;;;;25.30;16.23;;;;;;;;;;5053983;28;20178;-71
2022/01/23 06:30:34;;;;;;;24.63;15.03;;;;;;;;;;5050693;28;20196;-70
2022/01/23 06:33:00;;;;;;;21.90;14.90;;;;;;;;;;5054546;28;20280;-70
2022/01/23 06:35:25;;;;;;;28.00;18.27;;;;;;;;;;5048261;28;20229;-70
2022/01/23 06:37:51;;;;;;;21.87;16.40;;;;;;;;;;5050717;28;20244;-71
2022/01/23 06:40:16;;;;;;;20.43;14.40;;;;;;;;;;5032076;28;20177;-70
2022/01/23 06:42:42;;;;;;;21.53;15.03;;;;;;;;;;5044993;28;20173;-70
2022/01/23 06:45:07;;;;;;;20.23;12.60;;;;;;;;;;5049731;28;20185;-71
2022/01/23 06:47:32;;;;;;;21.07;13.47;;;;;;;;;;5048540;28;20736;-70
2022/01/23 06:49:58;;;;;;;22.97;13.87;;;;;;;;;;5049694;28;20181;-70
2022/01/23 06:52:23;;;;;;;27.20;15.50;;;;;;;;;;5049594;28;20658;-70
2022/01/23 06:54:48;;;;;;;19.47;13.73;;;;;;;;;;5047083;28;20178;-70
2022/01/23 06:57:13;;;;;;;25.50;15.33;;;;;;;;;;5060531;22;20229;-70
2022/01/23 06:59:39;;;;;;;21.67;13.73;;;;;;;;;;5045005;28;20299;-70
2022/01/23 07:02:04;;;;;;;22.07;14.93;;;;;;;;;;5044983;28;20181;-70
2022/01/23 07:04:30;;;;;;;22.23;14.03;;;;;;;;;;5050871;28;20212;-70
2022/01/23 07:06:55;;;;;;;23.33;16.13;;;;;;;;;;5048939;28;20201;-70
2022/01/23 07:09:20;;;;;;;23.83;15.97;;;;;;;;;;5046561;28;20177;-70
2022/01/23 07:11:45;;;;;;;21.87;15.53;;;;;;;;;;5049584;28;20527;-70
2022/01/23 07:14:11;;;;;;;28.07;17.37;;;;;;;;;;5045927;28;20581;-69
2022/01/23 07:16:36;;;;;;;22.13;15.73;;;;;;;;;;5043648;28;20701;-70
2022/01/23 07:19:01;;;;;;;25.93;15.17;;;;;;;;;;5047322;28;20206;-69
2022/01/23 07:21:27;;;;;;;25.30;15.80;;;;;;;;;;5046416;28;20608;-69
2022/01/23 07:23:52;;;;;;;25.03;15.77;;;;;;;;;;5047254;28;20169;-72
2022/01/23 07:26:19;;;;;;;28.53;17.43;;;;;;;;;;5048531;28;20193;-69
2022/01/23 07:28:46;;;;;;;25.57;15.90;;;;;;;;;;5047543;28;20207;-69
2022/01/23 07:31:13;;;;;;;27.17;17.70;;;;;;;;;;5048741;28;20180;-71
2022/01/23 07:33:38;;;;;;;25.80;17.50;;;;;;;;;;5044944;28;20182;-69
2022/01/23 07:36:04;;;;;;;27.20;17.83;;;;;;;;;;5047115;28;20662;-69
2022/01/23 07:38:30;;;;;;;31.90;18.40;;;;;;;;;;5046878;28;20209;-69
2022/01/23 07:40:55;;;;;;;30.53;18.07;;;;;;;;;;5044257;28;20232;-69
2022/01/23 07:43:20;;;;;;;29.17;18.77;;;;;;;;;;5046863;28;20181;-72
2022/01/23 07:45:45;;;;;;;28.23;18.47;;;;;;;;;;5047781;28;20197;-69
2022/01/23 07:48:10;;;;;;;27.83;18.27;;;;;;;;;;5048733;28;20258;-71
2022/01/23 07:50:36;;;;;;;26.63;18.03;;;;;;;;;;5056197;28;20241;-70
2022/01/23 07:53:02;;;;;;;30.40;20.00;;;;;;;;;;5051142;28;20550;-69
2022/01/23 07:55:27;;;;;;;31.67;18.60;;;;;;;;;;5046590;28;20607;-72
2022/01/23 07:57:53;;;;;;;27.87;18.93;;;;;;;;;;5047075;28;20273;-70
2022/01/23 08:00:19;;;;;;;31.30;20.07;;;;;;;;;;5046185;28;20209;-69
2022/01/23 08:02:44;;;;;;;33.63;19.37;;;;;;;;;;5048722;28;20662;-72
2022/01/23 08:05:10;;;;;;;33.23;19.87;;;;;;;;;;5052251;28;20288;-69
2022/01/23 08:07:36;;;;;;;33.10;20.17;;;;;;;;;;5050939;28;20197;-69
2022/01/23 08:10:05;;;;;;;34.83;20.87;;;;;;;;;;5050150;28;20329;-69
2022/01/23 08:12:30;;;;;;;31.87;20.77;;;;;;;;;;5047933;28;20269;-72
2022/01/23 08:14:56;;;;;;;32.00;20.27;;;;;;;;;;5049938;28;20348;-70
2022/01/23 08:17:25;;;;;;;29.07;20.60;;;;;;;;;;5051765;28;20270;-70
2022/01/23 08:19:51;;;;;;;32.30;21.73;;;;;;;;;;5049846;28;20246;-70
2022/01/23 08:22:16;;;;;;;36.13;22.10;;;;;;;;;;5046516;28;20285;-70
2022/01/23 08:24:42;;;;;;;34.60;21.63;;;;;;;;;;5051467;28;20201;-70
2022/01/23 08:27:07;;;;;;;41.80;23.17;;;;;;;;;;5049048;28;20201;-70
2022/01/23 08:29:32;;;;;;;34.93;20.83;;;;;;;;;;5051879;28;20189;-72
2022/01/23 08:31:57;;;;;;;33.13;21.97;;;;;;;;;;5049006;28;20517;-72
2022/01/23 08:34:22;;;;;;;32.03;20.93;;;;;;;;;;5052460;28;20178;-72
2022/01/23 08:36:47;;;;;;;32.37;21.07;;;;;;;;;;5051266;28;20197;-72
2022/01/23 08:39:15;;;;;;;34.27;23.17;;;;;;;;;;5052746;28;20224;-69
2022/01/23 08:41:49;;;;;;;34.97;21.60;;;;;;;;;;5046647;28;20170;-70
2022/01/23 08:44:15;;;;;;;30.33;19.13;;;;;;;;;;5042809;28;20650;-71
2022/01/23 08:46:40;;;;;;;31.67;21.07;;;;;;;;;;5048245;28;20195;-72
2022/01/23 08:49:06;;;;;;;30.90;21.13;;;;;;;;;;5033515;28;20562;-72
2022/01/23 08:51:31;;;;;;;30.13;18.90;;;;;;;;;;5049067;28;20185;-72
2022/01/23 08:53:58;;;;;;;35.67;21.93;;;;;;;;;;5051834;28;20268;-72
2022/01/23 08:56:23;;;;;;;36.10;22.17;;;;;;;;;;5033346;28;20210;-72
2022/01/23 08:58:49;;;;;;;35.80;20.53;;;;;;;;;;5052250;28;20227;-72
2022/01/23 09:01:14;;;;;;;32.60;20.43;;;;;;;;;;5051608;28;20173;-70
2022/01/23 09:03:39;;;;;;;31.83;21.23;;;;;;;;;;5030613;28;20180;-70
2022/01/23 09:06:07;;;;;;;29.17;18.97;;;;;;;;;;5050459;28;20225;-69
2022/01/23 09:08:34;;;;;;;30.97;20.57;;;;;;;;;;5050276;28;20601;-70
2022/01/23 09:11:07;;;;;;;32.37;19.37;;;;;;;;;;5032635;28;20185;-70
2022/01/23 09:13:54;;;;;;;31.93;19.30;;;;;;;;;;5051614;28;20177;-70
2022/01/23 09:16:19;;;;;;;27.40;17.63;;;;;;;;;;5051860;28;20197;-70
2022/01/23 09:18:45;;;;;;;31.80;18.80;;;;;;;;;;5047712;28;20678;-70
2022/01/23 09:21:10;;;;;;;36.10;22.37;;;;;;;;;;5046470;28;20643;-70
2022/01/23 09:23:35;;;;;;;32.43;20.13;;;;;;;;;;5048888;28;20223;-70
2022/01/23 09:26:07;;;;;;;32.83;20.67;;;;;;;;;;5048898;28;20198;-70
2022/01/23 09:28:33;;;;;;;27.53;17.73;;;;;;;;;;5048507;28;20205;-70
2022/01/23 09:30:59;;;;;;;32.83;20.83;;;;;;;;;;5037208;28;20181;-70
2022/01/23 09:33:24;;;;;;;32.80;19.33;;;;;;;;;;5051434;28;20174;-70
2022/01/23 09:35:50;;;;;;;26.87;18.80;;;;;;;;;;5051384;28;20197;-70
2022/01/23 09:38:15;;;;;;;26.93;18.70;;;;;;;;;;5048685;28;20233;-70
2022/01/23 09:40:41;;;;;;;31.53;18.87;;;;;;;;;;5051286;28;20234;-70
2022/01/23 09:43:08;;;;;;;29.57;19.20;;;;;;;;;;5031373;28;20259;-70
2022/01/23 09:45:33;;;;;;;27.83;19.00;;;;;;;;;;5050848;28;20185;-70
2022/01/23 09:47:59;;;;;;;28.83;19.83;;;;;;;;;;5052176;28;20214;-70
2022/01/23 09:50:25;;;;;;;28.90;19.20;;;;;;;;;;5054000;28;20176;-70
2022/01/23 09:52:52;;;;;;;25.30;17.97;;;;;;;;;;5050877;28;20165;-70
2022/01/23 09:55:19;;;;;;;28.43;18.90;;;;;;;;;;5045947;28;20283;-70
2022/01/23 09:57:45;;;;;;;23.57;17.50;;;;;;;;;;5033211;28;20674;-70
2022/01/23 10:00:12;;;;;;;27.23;18.63;;;;;;;;;;5051282;28;20209;-70
2022/01/23 10:02:37;;;;;;;27.67;18.13;;;;;;;;;;5050741;28;20243;-70
2022/01/23 10:05:04;;;;;;;25.17;19.17;;;;;;;;;;5033893;28;20706;-70
2022/01/23 10:07:29;;;;;;;25.70;18.57;;;;;;;;;;5050357;28;20206;-70
2022/01/23 10:10:06;;;;;;;27.70;17.70;;;;;;;;;;5051029;28;20219;-70
2022/01/23 10:12:32;;;;;;;25.53;17.23;;;;;;;;;;5032096;28;20211;-70
2022/01/23 10:14:57;;;;;;;27.30;17.97;;;;;;;;;;5049567;28;20182;-70
2022/01/23 10:17:22;;;;;;;26.30;18.00;;;;;;;;;;5050199;28;20251;-70
2022/01/23 10:19:47;;;;;;;26.33;18.37;;;;;;;;;;5048818;28;20185;-70
2022/01/23 10:22:14;;;;;;;29.20;18.23;;;;;;;;;;5048075;28;20257;-70
2022/01/23 10:24:40;;;;;;;23.60;16.23;;;;;;;;;;5050285;28;20607;-70
2022/01/23 10:27:05;;;;;;;34.83;20.60;;;;;;;;;;5031960;28;20197;-70
2022/01/23 10:29:36;;;;;;;22.30;15.60;;;;;;;;;;5050451;28;20663;-70
2022/01/23 10:32:02;;;;;;;26.10;17.60;;;;;;;;;;5049857;28;20182;-70
2022/01/23 10:34:38;;;;;;;26.67;17.90;;;;;;;;;;5049784;28;20561;-70
2022/01/23 10:37:04;;;;;;;25.03;17.00;;;;;;;;;;5046651;28;20205;-71
2022/01/23 10:39:38;;;;;;;26.33;17.23;;;;;;;;;;5058398;28;20197;-70
2022/01/23 10:42:26;;;;;;;24.60;16.87;;;;;;;;;;5059052;28;20181;-71
2022/01/23 10:47:47;;;;;;;24.93;17.20;;;;;;;;;;5050411;28;20220;-71
2022/01/23 10:50:12;;;;;;;21.07;16.17;;;;;;;;;;5048003;28;20192;-70
2022/01/23 10:52:39;;;;;;;21.57;17.33;;;;;;;;;;5049483;28;20188;-70
2022/01/23 10:55:04;;;;;;;22.60;17.43;;;;;;;;;;5047766;28;20196;-70
2022/01/23 10:57:46;;;;;;;23.73;17.03;;;;;;;;;;5046631;28;20592;-70
2022/01/23 11:00:21;;;;;;;24.97;16.33;;;;;;;;;;5047058;28;20205;-71
2022/01/23 11:02:47;;;;;;;26.63;16.37;;;;;;;;;;5047789;28;20177;-70
2022/01/23 11:05:12;;;;;;;25.37;15.63;;;;;;;;;;5031098;28;20185;-70
2022/01/23 11:07:42;;;;;;;23.93;15.83;;;;;;;;;;5026131;28;20202;-70
2022/01/23 11:10:09;;;;;;;24.37;17.00;;;;;;;;;;5027968;28;20723;-70
2022/01/23 11:17:53;;;;;;;20.43;15.80;;;;;;;;;;5048743;28;20188;-70
2022/01/23 11:20:54;;;;;;;18.23;14.10;;;;;;;;;;5048138;28;20300;-70
2022/01/23 11:23:19;;;;;;;20.27;15.40;;;;;;;;;;4947702;28;20582;-70
2022/01/23 11:25:44;;;;;;;25.63;16.07;;;;;;;;;;5008983;28;20210;-70
2022/01/23 11:28:09;;;;;;;22.60;15.07;;;;;;;;;;5046634;28;20178;-70
2022/01/23 11:30:36;;;;;;;19.70;14.10;;;;;;;;;;5048958;28;20326;-70
2022/01/23 11:33:03;;;;;;;21.03;15.40;;;;;;;;;;5047002;28;20178;-70
2022/01/23 11:35:28;;;;;;;20.40;15.63;;;;;;;;;;5046945;28;20180;-70
2022/01/23 11:37:54;;;;;;;24.27;16.53;;;;;;;;;;5045228;28;20554;-70
2022/01/23 11:40:40;;;;;;;20.00;14.17;;;;;;;;;;5049015;28;20201;-70
2022/01/23 11:53:45;;;;;;;21.27;14.70;;;;;;;;;;5047148;28;20188;-70
2022/01/23 11:54:09;;;;;;;24.37;16.07;;;;;;;;;;5047492;28;20307;-70
2022/01/23 11:56:37;;;;;;;26.67;14.40;;;;;;;;;;5047826;28;20304;-70
2022/01/23 11:59:16;;;;;;;20.77;14.00;;;;;;;;;;5044906;28;20189;-70
2022/01/23 12:01:43;;;;;;;17.83;13.50;;;;;;;;;;5048782;28;20226;-70
2022/01/23 12:04:08;;;;;;;23.47;14.30;;;;;;;;;;5048361;28;20234;-70
2022/01/23 12:06:34;;;;;;;20.83;14.60;;;;;;;;;;5045788;28;20194;-70
2022/01/23 12:09:09;;;;;;;21.07;14.63;;;;;;;;;;5025490;28;20190;-70
2022/01/23 12:11:43;;;;;;;17.63;13.43;;;;;;;;;;5045322;28;20402;-70
2022/01/23 12:16:51;;;;;;;21.73;13.97;;;;;;;;;;5048655;28;20231;-73
2022/01/23 12:19:18;;;;;;;18.33;12.73;;;;;;;;;;5048655;28;20194;-70
2022/01/23 12:21:43;;;;;;;19.70;12.47;;;;;;;;;;5046155;28;20323;-70
2022/01/23 12:24:09;;;;;;;19.50;11.73;;;;;;;;;;5030391;28;20669;-70
2022/01/23 12:26:34;;;;;;;18.00;12.33;;;;;;;;;;5045650;28;20217;-70
2022/01/23 12:29:11;;;;;;;19.57;13.20;;;;;;;;;;5029117;28;20174;-70
2022/01/23 12:31:37;;;;;;;19.87;13.40;;;;;;;;;;5030685;28;20651;-72
2022/01/23 12:34:02;;;;;;;19.73;14.07;;;;;;;;;;5047255;28;20255;-72
2022/01/23 12:36:29;;;;;;;25.70;14.43;;;;;;;;;;5043188;28;20296;-70
2022/01/23 12:39:14;;;;;;;20.03;14.87;;;;;;;;;;5047548;28;20205;-70
2022/01/23 12:41:40;;;;;;;18.20;13.97;;;;;;;;;;5046371;28;20593;-70
2022/01/23 12:44:29;;;;;;;22.73;14.83;;;;;;;;;;5045884;28;20249;-70
2022/01/23 12:46:56;;;;;;;21.43;14.50;;;;;;;;;;5049530;28;20691;-70
2022/01/23 12:49:29;;;;;;;22.10;14.90;;;;;;;;;;5049325;28;20170;-70
2022/01/23 12:51:54;;;;;;;18.80;14.53;;;;;;;;;;5050249;28;20545;-70
2022/01/23 12:54:24;;;;;;;19.57;14.37;;;;;;;;;;5045319;28;20179;-70
2022/01/23 12:56:51;;;;;;;20.90;14.37;;;;;;;;;;5053128;28;20259;-68
2022/01/23 12:59:30;;;;;;;19.87;14.70;;;;;;;;;;5048347;28;20194;-68
2022/01/23 13:02:03;;;;;;;22.50;16.37;;;;;;;;;;5049785;28;20684;-68
2022/01/23 13:04:37;;;;;;;20.27;14.80;;;;;;;;;;5049131;28;20260;-68
2022/01/23 13:07:07;;;;;;;21.73;14.70;;;;;;;;;;5049027;28;20570;-68
2022/01/23 13:09:41;;;;;;;21.33;14.20;;;;;;;;;;5032332;28;20574;-68
2022/01/23 13:12:12;;;;;;;19.67;14.43;;;;;;;;;;5049312;28;20564;-67
2022/01/23 13:14:40;;;;;;;19.87;15.17;;;;;;;;;;5049930;28;20189;-68
2022/01/23 13:19:59;;;;;;;20.77;14.60;;;;;;;;;;5050920;28;20213;-68
2022/01/23 13:30:34;;;;;;;24.33;15.33;;;;;;;;;;5069562;28;20173;-68
2022/01/23 13:33:04;;;;;;;19.33;13.77;;;;;;;;;;5055769;28;20177;-68
2022/01/23 13:35:34;;;;;;;20.60;15.03;;;;;;;;;;5052255;28;20697;-68
2022/01/23 13:38:00;;;;;;;22.40;13.73;;;;;;;;;;5051762;28;20181;-68
2022/01/23 13:40:34;;;;;;;18.10;13.10;;;;;;;;;;5050730;28;20213;-68
2022/01/23 13:59:52;;;;;;;18.37;12.17;;;;;;;;;;5046688;28;20192;-68
2022/01/23 14:02:20;;;;;;;19.10;13.23;;;;;;;;;;5033141;28;20177;-68
2022/01/23 14:04:50;;;;;;;16.83;12.73;;;;;;;;;;5045865;28;20342;-68
2022/01/23 14:07:23;;;;;;;16.87;12.00;;;;;;;;;;5051271;28;20247;-68
2022/01/23 14:09:49;;;;;;;19.10;14.23;;;;;;;;;;5029780;28;20254;-68
2022/01/23 14:12:19;;;;;;;17.67;13.13;;;;;;;;;;5051385;28;20201;-68
2022/01/23 14:15:02;;;;;;;19.20;13.67;;;;;;;;;;5049100;28;20276;-68
2022/01/23 14:17:28;;;;;;;17.33;12.83;;;;;;;;;;5050955;28;20201;-68
2022/01/23 14:20:03;;;;;;;16.17;12.53;;;;;;;;;;5030743;28;20220;-69
2022/01/23 14:22:30;;;;;;;16.90;11.53;;;;;;;;;;5051501;28;20642;-69
2022/01/23 14:25:05;;;;;;;16.80;12.33;;;;;;;;;;5045716;28;20181;-68
2022/01/23 14:27:30;;;;;;;15.97;12.53;;;;;;;;;;5050990;28;20205;-68
2022/01/23 14:29:56;;;;;;;15.13;10.77;;;;;;;;;;5046914;28;20186;-68
2022/01/23 14:32:35;;;;;;;15.00;10.47;;;;;;;;;;5046982;28;20260;-69
2022/01/23 14:35:05;;;;;;;13.53;10.70;;;;;;;;;;5048835;28;20178;-69
2022/01/23 14:37:30;;;;;;;14.70;10.67;;;;;;;;;;5049703;28;20194;-70
2022/01/23 14:40:14;;;;;;;14.93;10.17;;;;;;;;;;5049666;28;20552;-69
2022/01/23 14:42:40;;;;;;;16.33;11.23;;;;;;;;;;5044511;28;22000;-69
2022/01/23 14:45:06;;;;;;;14.03;9.87;;;;;;;;;;5039630;28;20188;-68
2022/01/23 14:47:38;;;;;;;16.80;10.60;;;;;;;;;;5038571;28;20212;-68
2022/01/23 14:50:06;;;;;;;15.20;10.37;;;;;;;;;;5044910;28;20173;-68
2022/01/23 14:52:31;;;;;;;13.63;11.27;;;;;;;;;;5027300;28;20552;-67
2022/01/23 14:54:56;;;;;;;21.43;13.67;;;;;;;;;;5049799;28;20173;-68
2022/01/23 14:57:22;;;;;;;17.60;11.70;;;;;;;;;;5031108;28;20586;-68
2022/01/23 14:59:47;;;;;;;20.20;12.20;;;;;;;;;;5031517;28;20263;-68
2022/01/23 15:02:13;;;;;;;16.83;12.83;;;;;;;;;;5048492;28;20225;-68
2022/01/23 15:04:40;;;;;;;17.40;13.10;;;;;;;;;;5046766;28;20251;-67
2022/01/23 15:07:07;;;;;;;20.47;14.43;;;;;;;;;;5042940;28;20285;-68
2022/01/23 15:09:33;;;;;;;19.77;13.97;;;;;;;;;;5045494;28;20256;-68
2022/01/23 15:11:58;;;;;;;17.43;12.73;;;;;;;;;;5047350;28;20260;-71
2022/01/23 15:14:23;;;;;;;23.00;13.50;;;;;;;;;;5049449;28;20231;-68
2022/01/23 15:16:50;;;;;;;19.20;14.07;;;;;;;;;;5046594;28;20220;-68
2022/01/23 15:19:15;;;;;;;19.20;15.13;;;;;;;;;;5030907;28;20755;-68
2022/01/23 15:21:41;;;;;;;20.63;15.87;;;;;;;;;;5048436;28;20181;-68
2022/01/23 15:24:06;;;;;;;22.00;16.43;;;;;;;;;;5046586;28;20170;-68
2022/01/23 15:26:33;;;;;;;21.43;16.43;;;;;;;;;;5043273;28;20209;-68
2022/01/23 15:28:59;;;;;;;21.83;15.97;;;;;;;;;;5045084;28;20607;-70
2022/01/23 15:31:24;;;;;;;21.33;15.30;;;;;;;;;;5048625;28;20351;-67
2022/01/23 15:33:50;;;;;;;20.57;15.57;;;;;;;;;;5046570;28;20740;-69
2022/01/23 15:36:16;;;;;;;20.10;14.90;;;;;;;;;;5047071;28;20282;-70
2022/01/23 15:38:44;;;;;;;22.03;14.90;;;;;;;;;;5048729;28;20546;-68
2022/01/23 15:41:09;;;;;;;20.03;15.00;;;;;;;;;;5047726;28;20588;-68
2022/01/23 15:43:35;;;;;;;22.10;15.73;;;;;;;;;;5048224;28;20170;-68
2022/01/23 15:46:00;;;;;;;21.60;15.07;;;;;;;;;;5047513;28;20271;-69
2022/01/23 15:48:30;;;;;;;19.87;16.60;;;;;;;;;;5047266;28;20197;-69
2022/01/23 15:50:55;;;;;;;21.93;15.83;;;;;;;;;;5049141;28;20178;-68
2022/01/23 15:53:22;;;;;;;25.70;17.20;;;;;;;;;;5045111;28;20170;-69
2022/01/23 15:55:48;;;;;;;21.97;16.27;;;;;;;;;;5048871;28;20631;-68
2022/01/23 15:58:13;;;;;;;23.60;16.73;;;;;;;;;;5046939;28;20173;-69
2022/01/23 16:00:38;;;;;;;20.60;16.27;;;;;;;;;;5047891;28;20213;-69
2022/01/23 16:03:03;;;;;;;24.17;17.07;;;;;;;;;;5049573;28;20193;-69
2022/01/23 16:05:29;;;;;;;27.57;17.47;;;;;;;;;;5031607;28;20185;-68
2022/01/23 16:07:54;;;;;;;25.13;17.90;;;;;;;;;;5049975;28;20181;-69
2022/01/23 16:10:19;;;;;;;24.60;16.53;;;;;;;;;;5029263;28;20189;-69
2022/01/23 16:12:44;;;;;;;29.33;19.13;;;;;;;;;;5048098;28;20652;-68
2022/01/23 16:15:11;;;;;;;26.17;19.17;;;;;;;;;;5049521;28;20402;-68
2022/01/23 16:17:36;;;;;;;25.53;17.47;;;;;;;;;;5051103;28;20288;-68
2022/01/23 16:20:03;;;;;;;25.87;18.83;;;;;;;;;;5063581;28;20201;-68
2022/01/23 16:22:28;;;;;;;28.03;18.60;;;;;;;;;;5058529;28;20643;-69
2022/01/23 16:24:54;;;;;;;25.70;18.70;;;;;;;;;;5051062;28;20170;-69
2022/01/23 16:27:19;;;;;;;24.80;17.63;;;;;;;;;;5053337;28;20257;-69
2022/01/23 16:29:44;;;;;;;23.63;17.43;;;;;;;;;;5052045;28;20192;-68
2022/01/23 16:32:10;;;;;;;25.80;18.23;;;;;;;;;;5052766;28;20215;-69
2022/01/23 16:34:36;;;;;;;25.00;18.70;;;;;;;;;;5048344;28;20181;-69
2022/01/23 16:37:02;;;;;;;27.13;18.40;;;;;;;;;;5020951;28;20269;-68
2022/01/23 16:39:27;;;;;;;27.70;18.80;;;;;;;;;;5043648;28;20718;-68
2022/01/23 16:41:52;;;;;;;26.47;18.93;;;;;;;;;;5049727;28;20228;-68
2022/01/23 16:44:21;;;;;;;28.30;19.17;;;;;;;;;;5049128;28;20216;-69
2022/01/23 16:46:46;;;;;;;29.50;19.47;;;;;;;;;;5051535;28;20221;-68
2022/01/23 16:49:12;;;;;;;29.53;20.17;;;;;;;;;;5050217;28;20213;-68
2022/01/23 16:51:38;;;;;;;28.47;20.93;;;;;;;;;;5051422;28;20185;-69
2022/01/23 16:54:07;;;;;;;29.90;19.87;;;;;;;;;;5050856;28;20178;-68
2022/01/23 16:56:33;;;;;;;31.73;21.40;;;;;;;;;;5051825;28;20217;-69
2022/01/23 16:58:58;;;;;;;26.83;20.67;;;;;;;;;;5050163;28;20209;-69
2022/01/23 17:01:24;;;;;;;27.63;20.03;;;;;;;;;;5052225;28;20180;-68
2022/01/23 17:03:49;;;;;;;30.40;20.80;;;;;;;;;;5050939;28;20223;-69
2022/01/23 17:06:16;;;;;;;28.90;20.73;;;;;;;;;;5052821;28;20227;-68
2022/01/23 17:08:41;;;;;;;28.77;19.83;;;;;;;;;;5032185;28;20733;-69
2022/01/23 17:11:06;;;;;;;26.57;19.83;;;;;;;;;;5051230;28;20177;-68
2022/01/23 17:13:32;;;;;;;30.20;20.87;;;;;;;;;;5049939;28;20185;-68
2022/01/23 17:15:57;;;;;;;28.57;19.80;;;;;;;;;;5027679;28;20206;-69
2022/01/23 17:18:22;;;;;;;29.00;19.80;;;;;;;;;;5048831;28;20663;-69
2022/01/23 17:20:48;;;;;;;30.70;21.53;;;;;;;;;;5050061;28;20178;-68
2022/01/23 17:23:13;;;;;;;27.33;20.53;;;;;;;;;;5050864;28;20221;-68